sensor_id;sensor_type;location;lat;lon;timestamp;P1;durP1;ratioP1;P2;durP2;ratioP2
63346;SDS011;49472;49.880;8.650;2023-11-19T00:00:09;20.27;;;18.40;;
63346;SDS011;49472;49.880;8.650;2023-11-19T00:02:38;21.50;;;18.00;;
63346;SDS011;49472;49.880;8.650;2023-11-19T00:05:03;20.83;;;18.93;;
63346;SDS011;49472;49.880;8.650;2023-11-19T00:07:28;18.43;;;16.87;;
63346;SDS011;49472;49.880;8.650;2023-11-19T00:09:54;19.63;;;17.87;;
63346;SDS011;49472;49.880;8.650;2023-11-19T00:12:20;18.70;;;17.00;;
63346;SDS011;49472;49.880;8.650;2023-11-19T00:14:45;19.53;;;17.90;;
63346;SDS011;49472;49.880;8.650;2023-11-19T00:17:10;19.43;;;17.70;;
63346;SDS011;49472;49.880;8.650;2023-11-19T00:19:36;19.23;;;17.63;;
63346;SDS011;49472;49.880;8.650;2023-11-19T00:22:01;18.97;;;17.37;;
63346;SDS011;49472;49.880;8.650;2023-11-19T00:24:28;18.30;;;16.50;;
63346;SDS011;49472;49.880;8.650;2023-11-19T00:26:55;15.80;;;14.60;;
63346;SDS011;49472;49.880;8.650;2023-11-19T00:29:21;17.27;;;15.73;;
63346;SDS011;49472;49.880;8.650;2023-11-19T00:31:46;18.53;;;15.47;;
63346;SDS011;49472;49.880;8.650;2023-11-19T00:34:11;17.53;;;16.07;;
63346;SDS011;49472;49.880;8.650;2023-11-19T00:36:37;16.13;;;14.73;;
63346;SDS011;49472;49.880;8.650;2023-11-19T00:39:02;15.30;;;14.27;;
63346;SDS011;49472;49.880;8.650;2023-11-19T00:41:27;15.80;;;14.60;;
63346;SDS011;49472;49.880;8.650;2023-11-19T00:43:52;16.20;;;14.67;;
63346;SDS011;49472;49.880;8.650;2023-11-19T00:46:19;15.60;;;14.40;;
63346;SDS011;49472;49.880;8.650;2023-11-19T00:48:44;15.73;;;14.63;;
63346;SDS011;49472;49.880;8.650;2023-11-19T00:51:12;16.83;;;15.50;;
63346;SDS011;49472;49.880;8.650;2023-11-19T00:53:37;16.47;;;15.27;;
63346;SDS011;49472;49.880;8.650;2023-11-19T00:56:03;15.80;;;14.60;;
63346;SDS011;49472;49.880;8.650;2023-11-19T00:58:28;16.50;;;15.00;;
63346;SDS011;49472;49.880;8.650;2023-11-19T01:00:54;15.37;;;14.27;;
63346;SDS011;49472;49.880;8.650;2023-11-19T01:03:19;16.13;;;14.73;;
63346;SDS011;49472;49.880;8.650;2023-11-19T01:05:44;16.93;;;15.73;;
63346;SDS011;49472;49.880;8.650;2023-11-19T01:08:11;15.97;;;14.87;;
63346;SDS011;49472;49.880;8.650;2023-11-19T01:10:37;14.73;;;13.73;;
63346;SDS011;49472;49.880;8.650;2023-11-19T01:13:02;16.10;;;14.80;;
63346;SDS011;49472;49.880;8.650;2023-11-19T01:15:30;16.93;;;15.43;;
63346;SDS011;49472;49.880;8.650;2023-11-19T01:17:55;15.57;;;14.27;;
63346;SDS011;49472;49.880;8.650;2023-11-19T01:20:21;14.97;;;13.67;;
63346;SDS011;49472;49.880;8.650;2023-11-19T01:22:46;15.70;;;14.33;;
63346;SDS011;49472;49.880;8.650;2023-11-19T01:25:13;14.17;;;13.07;;
63346;SDS011;49472;49.880;8.650;2023-11-19T01:27:38;14.53;;;13.30;;
63346;SDS011;49472;49.880;8.650;2023-11-19T01:30:04;12.73;;;11.73;;
63346;SDS011;49472;49.880;8.650;2023-11-19T01:32:30;14.27;;;13.17;;
63346;SDS011;49472;49.880;8.650;2023-11-19T01:34:55;12.70;;;11.60;;
63346;SDS011;49472;49.880;8.650;2023-11-19T01:37:20;12.70;;;11.80;;
63346;SDS011;49472;49.880;8.650;2023-11-19T01:39:46;12.43;;;11.63;;
63346;SDS011;49472;49.880;8.650;2023-11-19T01:42:11;12.53;;;11.63;;
63346;SDS011;49472;49.880;8.650;2023-11-19T01:44:37;13.07;;;12.10;;
63346;SDS011;49472;49.880;8.650;2023-11-19T01:47:02;12.77;;;11.90;;
63346;SDS011;49472;49.880;8.650;2023-11-19T01:49:29;11.50;;;10.83;;
63346;SDS011;49472;49.880;8.650;2023-11-19T01:51:55;11.40;;;10.80;;
63346;SDS011;49472;49.880;8.650;2023-11-19T01:54:22;12.20;;;11.40;;
63346;SDS011;49472;49.880;8.650;2023-11-19T01:56:47;12.77;;;11.97;;
63346;SDS011;49472;49.880;8.650;2023-11-19T01:59:12;12.93;;;12.13;;
63346;SDS011;49472;49.880;8.650;2023-11-19T02:01:38;12.27;;;11.47;;
63346;SDS011;49472;49.880;8.650;2023-11-19T02:04:05;12.43;;;11.67;;
63346;SDS011;49472;49.880;8.650;2023-11-19T02:06:31;12.03;;;11.20;;
63346;SDS011;49472;49.880;8.650;2023-11-19T02:08:57;11.93;;;11.30;;
63346;SDS011;49472;49.880;8.650;2023-11-19T02:11:22;12.33;;;11.53;;
63346;SDS011;49472;49.880;8.650;2023-11-19T02:13:48;11.83;;;11.23;;
63346;SDS011;49472;49.880;8.650;2023-11-19T02:16:13;11.63;;;11.03;;
63346;SDS011;49472;49.880;8.650;2023-11-19T02:18:39;12.67;;;11.97;;
63346;SDS011;49472;49.880;8.650;2023-11-19T02:21:04;13.00;;;12.07;;
63346;SDS011;49472;49.880;8.650;2023-11-19T02:23:30;12.10;;;11.50;;
63346;SDS011;49472;49.880;8.650;2023-11-19T02:28:30;12.07;;;11.47;;
63346;SDS011;49472;49.880;8.650;2023-11-19T02:30:55;12.63;;;11.87;;
63346;SDS011;49472;49.880;8.650;2023-11-19T02:33:21;12.70;;;11.70;;
63346;SDS011;49472;49.880;8.650;2023-11-19T02:35:46;11.50;;;10.83;;
63346;SDS011;49472;49.880;8.650;2023-11-19T02:38:11;11.70;;;11.10;;
63346;SDS011;49472;49.880;8.650;2023-11-19T02:40:39;11.83;;;11.30;;
63346;SDS011;49472;49.880;8.650;2023-11-19T02:43:04;12.60;;;11.50;;
63346;SDS011;49472;49.880;8.650;2023-11-19T02:45:30;12.60;;;11.90;;
63346;SDS011;49472;49.880;8.650;2023-11-19T02:47:55;12.13;;;11.33;;
63346;SDS011;49472;49.880;8.650;2023-11-19T02:50:21;11.57;;;10.97;;
63346;SDS011;49472;49.880;8.650;2023-11-19T02:52:53;11.93;;;11.33;;
63346;SDS011;49472;49.880;8.650;2023-11-19T02:55:18;11.93;;;11.33;;
63346;SDS011;49472;49.880;8.650;2023-11-19T02:57:44;12.40;;;11.70;;
63346;SDS011;49472;49.880;8.650;2023-11-19T03:00:16;12.27;;;11.63;;
63346;SDS011;49472;49.880;8.650;2023-11-19T03:02:42;11.80;;;11.00;;
63346;SDS011;49472;49.880;8.650;2023-11-19T03:05:19;12.60;;;11.90;;
63346;SDS011;49472;49.880;8.650;2023-11-19T03:07:44;13.13;;;12.33;;
63346;SDS011;49472;49.880;8.650;2023-11-19T03:10:10;12.80;;;12.10;;
63346;SDS011;49472;49.880;8.650;2023-11-19T03:12:39;12.80;;;11.90;;
63346;SDS011;49472;49.880;8.650;2023-11-19T03:15:05;12.60;;;11.90;;
63346;SDS011;49472;49.880;8.650;2023-11-19T03:17:31;12.97;;;12.27;;
63346;SDS011;49472;49.880;8.650;2023-11-19T03:19:56;12.70;;;12.00;;
63346;SDS011;49472;49.880;8.650;2023-11-19T03:22:21;13.00;;;12.30;;
63346;SDS011;49472;49.880;8.650;2023-11-19T03:24:46;12.90;;;12.20;;
63346;SDS011;49472;49.880;8.650;2023-11-19T03:27:11;13.10;;;12.27;;
63346;SDS011;49472;49.880;8.650;2023-11-19T03:29:37;13.33;;;12.53;;
63346;SDS011;49472;49.880;8.650;2023-11-19T03:32:03;13.37;;;12.57;;
63346;SDS011;49472;49.880;8.650;2023-11-19T03:34:28;13.80;;;12.77;;
63346;SDS011;49472;49.880;8.650;2023-11-19T03:36:54;13.37;;;12.57;;
63346;SDS011;49472;49.880;8.650;2023-11-19T03:39:20;13.80;;;12.80;;
63346;SDS011;49472;49.880;8.650;2023-11-19T03:41:45;13.10;;;12.37;;
63346;SDS011;49472;49.880;8.650;2023-11-19T03:44:12;12.60;;;11.80;;
63346;SDS011;49472;49.880;8.650;2023-11-19T03:46:37;14.23;;;13.00;;
63346;SDS011;49472;49.880;8.650;2023-11-19T03:49:02;12.67;;;11.93;;
63346;SDS011;49472;49.880;8.650;2023-11-19T03:51:29;13.07;;;12.27;;
63346;SDS011;49472;49.880;8.650;2023-11-19T03:53:55;13.63;;;12.83;;
63346;SDS011;49472;49.880;8.650;2023-11-19T03:56:20;13.53;;;12.57;;
63346;SDS011;49472;49.880;8.650;2023-11-19T03:58:46;13.80;;;12.70;;
63346;SDS011;49472;49.880;8.650;2023-11-19T04:01:11;12.80;;;12.03;;
63346;SDS011;49472;49.880;8.650;2023-11-19T04:03:38;13.27;;;12.47;;
63346;SDS011;49472;49.880;8.650;2023-11-19T04:06:03;13.13;;;12.17;;
63346;SDS011;49472;49.880;8.650;2023-11-19T04:08:29;11.93;;;11.13;;
63346;SDS011;49472;49.880;8.650;2023-11-19T04:10:54;11.50;;;10.80;;
63346;SDS011;49472;49.880;8.650;2023-11-19T04:13:20;11.07;;;10.37;;
63346;SDS011;49472;49.880;8.650;2023-11-19T04:15:45;12.07;;;10.77;;
63346;SDS011;49472;49.880;8.650;2023-11-19T04:18:10;12.20;;;11.30;;
63346;SDS011;49472;49.880;8.650;2023-11-19T04:20:35;12.10;;;11.40;;
63346;SDS011;49472;49.880;8.650;2023-11-19T04:23:01;12.33;;;11.63;;
63346;SDS011;49472;49.880;8.650;2023-11-19T04:25:26;12.60;;;11.80;;
63346;SDS011;49472;49.880;8.650;2023-11-19T04:27:52;12.57;;;11.77;;
63346;SDS011;49472;49.880;8.650;2023-11-19T04:30:17;12.27;;;11.50;;
63346;SDS011;49472;49.880;8.650;2023-11-19T04:32:43;12.00;;;11.20;;
63346;SDS011;49472;49.880;8.650;2023-11-19T04:35:08;12.63;;;11.90;;
63346;SDS011;49472;49.880;8.650;2023-11-19T04:37:34;12.40;;;11.50;;
63346;SDS011;49472;49.880;8.650;2023-11-19T04:40:00;12.13;;;11.20;;
63346;SDS011;49472;49.880;8.650;2023-11-19T04:42:25;12.23;;;11.53;;
63346;SDS011;49472;49.880;8.650;2023-11-19T04:44:50;12.70;;;11.90;;
63346;SDS011;49472;49.880;8.650;2023-11-19T04:47:15;13.03;;;12.23;;
63346;SDS011;49472;49.880;8.650;2023-11-19T04:49:40;13.27;;;12.47;;
63346;SDS011;49472;49.880;8.650;2023-11-19T04:52:08;12.80;;;12.00;;
63346;SDS011;49472;49.880;8.650;2023-11-19T04:54:34;13.73;;;12.83;;
63346;SDS011;49472;49.880;8.650;2023-11-19T04:56:59;14.70;;;13.53;;
63346;SDS011;49472;49.880;8.650;2023-11-19T04:59:24;14.90;;;13.80;;
63346;SDS011;49472;49.880;8.650;2023-11-19T05:01:49;15.07;;;14.03;;
63346;SDS011;49472;49.880;8.650;2023-11-19T05:04:15;15.57;;;14.57;;
63346;SDS011;49472;49.880;8.650;2023-11-19T05:06:40;15.57;;;14.33;;
63346;SDS011;49472;49.880;8.650;2023-11-19T05:09:06;15.43;;;14.33;;
63346;SDS011;49472;49.880;8.650;2023-11-19T05:11:34;15.53;;;14.43;;
63346;SDS011;49472;49.880;8.650;2023-11-19T05:14:00;15.60;;;14.50;;
63346;SDS011;49472;49.880;8.650;2023-11-19T05:16:26;16.50;;;15.40;;
63346;SDS011;49472;49.880;8.650;2023-11-19T05:18:51;15.90;;;14.80;;
63346;SDS011;49472;49.880;8.650;2023-11-19T05:21:16;15.77;;;14.77;;
63346;SDS011;49472;49.880;8.650;2023-11-19T05:23:42;15.50;;;14.50;;
63346;SDS011;49472;49.880;8.650;2023-11-19T05:26:08;14.30;;;13.40;;
63346;SDS011;49472;49.880;8.650;2023-11-19T05:28:34;15.13;;;14.03;;
63346;SDS011;49472;49.880;8.650;2023-11-19T05:30:59;15.03;;;14.03;;
63346;SDS011;49472;49.880;8.650;2023-11-19T05:33:24;21.23;;;15.50;;
63346;SDS011;49472;49.880;8.650;2023-11-19T05:35:50;16.50;;;15.23;;
63346;SDS011;49472;49.880;8.650;2023-11-19T05:38:15;17.00;;;15.80;;
63346;SDS011;49472;49.880;8.650;2023-11-19T05:40:40;16.40;;;15.30;;
63346;SDS011;49472;49.880;8.650;2023-11-19T05:43:06;15.80;;;14.70;;
63346;SDS011;49472;49.880;8.650;2023-11-19T05:45:31;16.77;;;15.47;;
63346;SDS011;49472;49.880;8.650;2023-11-19T05:47:57;15.63;;;14.63;;
63346;SDS011;49472;49.880;8.650;2023-11-19T05:50:22;16.33;;;15.03;;
63346;SDS011;49472;49.880;8.650;2023-11-19T05:52:47;16.37;;;15.17;;
63346;SDS011;49472;49.880;8.650;2023-11-19T05:55:12;16.37;;;15.13;;
63346;SDS011;49472;49.880;8.650;2023-11-19T05:57:38;16.40;;;15.20;;
63346;SDS011;49472;49.880;8.650;2023-11-19T06:00:05;16.73;;;15.53;;
63346;SDS011;49472;49.880;8.650;2023-11-19T06:02:32;15.93;;;14.83;;
63346;SDS011;49472;49.880;8.650;2023-11-19T06:04:57;15.60;;;14.27;;
63346;SDS011;49472;49.880;8.650;2023-11-19T06:07:23;15.90;;;14.70;;
63346;SDS011;49472;49.880;8.650;2023-11-19T06:09:48;16.40;;;15.20;;
63346;SDS011;49472;49.880;8.650;2023-11-19T06:12:13;15.40;;;14.30;;
63346;SDS011;49472;49.880;8.650;2023-11-19T06:14:39;27.73;;;17.00;;
63346;SDS011;49472;49.880;8.650;2023-11-19T06:17:04;18.60;;;15.87;;
63346;SDS011;49472;49.880;8.650;2023-11-19T06:19:30;15.20;;;14.10;;
63346;SDS011;49472;49.880;8.650;2023-11-19T06:21:55;14.93;;;13.70;;
63346;SDS011;49472;49.880;8.650;2023-11-19T06:24:20;13.60;;;12.30;;
63346;SDS011;49472;49.880;8.650;2023-11-19T06:26:46;11.83;;;10.73;;
63346;SDS011;49472;49.880;8.650;2023-11-19T06:29:11;11.03;;;10.07;;
63346;SDS011;49472;49.880;8.650;2023-11-19T06:31:36;11.87;;;8.30;;
63346;SDS011;49472;49.880;8.650;2023-11-19T06:34:02;8.00;;;7.20;;
63346;SDS011;49472;49.880;8.650;2023-11-19T06:36:28;10.83;;;7.50;;
63346;SDS011;49472;49.880;8.650;2023-11-19T06:38:53;7.90;;;7.30;;
63346;SDS011;49472;49.880;8.650;2023-11-19T06:41:19;8.80;;;7.10;;
63346;SDS011;49472;49.880;8.650;2023-11-19T06:43:44;11.93;;;7.23;;
63346;SDS011;49472;49.880;8.650;2023-11-19T06:46:16;23.10;;;8.00;;
63346;SDS011;49472;49.880;8.650;2023-11-19T06:48:41;23.93;;;9.07;;
63346;SDS011;49472;49.880;8.650;2023-11-19T06:51:08;8.47;;;7.67;;
63346;SDS011;49472;49.880;8.650;2023-11-19T06:53:34;8.70;;;7.43;;
63346;SDS011;49472;49.880;8.650;2023-11-19T06:55:59;8.60;;;7.67;;
63346;SDS011;49472;49.880;8.650;2023-11-19T06:58:25;8.53;;;7.83;;
63346;SDS011;49472;49.880;8.650;2023-11-19T07:00:50;7.90;;;7.00;;
63346;SDS011;49472;49.880;8.650;2023-11-19T07:03:16;8.90;;;8.10;;
63346;SDS011;49472;49.880;8.650;2023-11-19T07:05:41;8.60;;;7.77;;
63346;SDS011;49472;49.880;8.650;2023-11-19T07:08:06;8.00;;;7.30;;
63346;SDS011;49472;49.880;8.650;2023-11-19T07:10:35;9.03;;;8.10;;
63346;SDS011;49472;49.880;8.650;2023-11-19T07:13:00;13.00;;;9.80;;
63346;SDS011;49472;49.880;8.650;2023-11-19T07:15:25;10.03;;;9.10;;
63346;SDS011;49472;49.880;8.650;2023-11-19T07:17:50;10.50;;;8.97;;
63346;SDS011;49472;49.880;8.650;2023-11-19T07:20:16;12.40;;;10.10;;
63346;SDS011;49472;49.880;8.650;2023-11-19T07:22:44;12.43;;;9.90;;
63346;SDS011;49472;49.880;8.650;2023-11-19T07:25:12;9.70;;;8.70;;
63346;SDS011;49472;49.880;8.650;2023-11-19T07:27:38;10.80;;;9.73;;
63346;SDS011;49472;49.880;8.650;2023-11-19T07:30:03;11.87;;;9.80;;
63346;SDS011;49472;49.880;8.650;2023-11-19T07:32:29;10.17;;;8.93;;
63346;SDS011;49472;49.880;8.650;2023-11-19T07:34:54;10.00;;;9.30;;
63346;SDS011;49472;49.880;8.650;2023-11-19T07:37:21;17.53;;;11.20;;
63346;SDS011;49472;49.880;8.650;2023-11-19T07:39:47;12.00;;;11.07;;
63346;SDS011;49472;49.880;8.650;2023-11-19T07:42:12;12.80;;;11.53;;
63346;SDS011;49472;49.880;8.650;2023-11-19T07:44:37;13.30;;;12.07;;
63346;SDS011;49472;49.880;8.650;2023-11-19T07:47:02;13.30;;;12.10;;
63346;SDS011;49472;49.880;8.650;2023-11-19T07:49:28;15.60;;;12.30;;
63346;SDS011;49472;49.880;8.650;2023-11-19T07:51:53;12.77;;;11.47;;
63346;SDS011;49472;49.880;8.650;2023-11-19T07:54:18;13.23;;;12.10;;
63346;SDS011;49472;49.880;8.650;2023-11-19T07:56:46;13.83;;;12.50;;
63346;SDS011;49472;49.880;8.650;2023-11-19T07:59:11;13.90;;;12.40;;
63346;SDS011;49472;49.880;8.650;2023-11-19T08:01:36;12.43;;;11.30;;
63346;SDS011;49472;49.880;8.650;2023-11-19T08:04:02;13.37;;;12.10;;
63346;SDS011;49472;49.880;8.650;2023-11-19T08:06:27;12.47;;;11.57;;
63346;SDS011;49472;49.880;8.650;2023-11-19T08:08:52;13.20;;;12.10;;
63346;SDS011;49472;49.880;8.650;2023-11-19T08:11:18;13.30;;;11.90;;
63346;SDS011;49472;49.880;8.650;2023-11-19T08:13:44;13.40;;;12.20;;
63346;SDS011;49472;49.880;8.650;2023-11-19T08:16:09;12.90;;;11.90;;
63346;SDS011;49472;49.880;8.650;2023-11-19T08:18:36;13.20;;;12.00;;
63346;SDS011;49472;49.880;8.650;2023-11-19T08:21:04;12.80;;;11.90;;
63346;SDS011;49472;49.880;8.650;2023-11-19T08:23:29;14.60;;;12.33;;
63346;SDS011;49472;49.880;8.650;2023-11-19T08:25:56;12.73;;;11.67;;
63346;SDS011;49472;49.880;8.650;2023-11-19T08:28:21;12.53;;;11.73;;
63346;SDS011;49472;49.880;8.650;2023-11-19T08:30:46;12.97;;;11.97;;
63346;SDS011;49472;49.880;8.650;2023-11-19T08:33:12;12.93;;;11.83;;
63346;SDS011;49472;49.880;8.650;2023-11-19T08:35:37;14.20;;;12.97;;
63346;SDS011;49472;49.880;8.650;2023-11-19T08:38:02;12.43;;;11.73;;
63346;SDS011;49472;49.880;8.650;2023-11-19T08:40:28;11.70;;;11.00;;
63346;SDS011;49472;49.880;8.650;2023-11-19T08:42:53;12.33;;;11.50;;
63346;SDS011;49472;49.880;8.650;2023-11-19T08:45:20;13.17;;;12.17;;
63346;SDS011;49472;49.880;8.650;2023-11-19T08:47:46;13.00;;;12.00;;
63346;SDS011;49472;49.880;8.650;2023-11-19T08:50:12;13.50;;;12.60;;
63346;SDS011;49472;49.880;8.650;2023-11-19T08:52:37;13.43;;;12.60;;
63346;SDS011;49472;49.880;8.650;2023-11-19T08:55:03;14.70;;;12.03;;
63346;SDS011;49472;49.880;8.650;2023-11-19T08:57:30;13.80;;;12.80;;
63346;SDS011;49472;49.880;8.650;2023-11-19T08:59:55;14.00;;;12.63;;
63346;SDS011;49472;49.880;8.650;2023-11-19T09:02:20;13.30;;;12.20;;
63346;SDS011;49472;49.880;8.650;2023-11-19T09:04:46;14.50;;;13.30;;
63346;SDS011;49472;49.880;8.650;2023-11-19T09:07:11;13.23;;;12.33;;
63346;SDS011;49472;49.880;8.650;2023-11-19T09:09:36;14.27;;;12.57;;
63346;SDS011;49472;49.880;8.650;2023-11-19T09:12:02;12.80;;;12.00;;
63346;SDS011;49472;49.880;8.650;2023-11-19T09:14:28;14.33;;;13.10;;
63346;SDS011;49472;49.880;8.650;2023-11-19T09:16:53;14.30;;;13.30;;
63346;SDS011;49472;49.880;8.650;2023-11-19T09:19:18;13.27;;;12.30;;
63346;SDS011;49472;49.880;8.650;2023-11-19T09:21:43;16.30;;;12.13;;
63346;SDS011;49472;49.880;8.650;2023-11-19T09:24:09;13.00;;;12.10;;
63346;SDS011;49472;49.880;8.650;2023-11-19T09:26:37;12.73;;;11.83;;
63346;SDS011;49472;49.880;8.650;2023-11-19T09:29:05;20.13;;;13.30;;
63346;SDS011;49472;49.880;8.650;2023-11-19T09:31:30;12.67;;;11.63;;
63346;SDS011;49472;49.880;8.650;2023-11-19T09:33:55;12.30;;;11.30;;
63346;SDS011;49472;49.880;8.650;2023-11-19T09:36:20;12.80;;;11.80;;
63346;SDS011;49472;49.880;8.650;2023-11-19T09:38:46;12.13;;;11.30;;
63346;SDS011;49472;49.880;8.650;2023-11-19T09:41:11;12.47;;;11.40;;
63346;SDS011;49472;49.880;8.650;2023-11-19T09:43:39;13.10;;;11.70;;
63346;SDS011;49472;49.880;8.650;2023-11-19T09:46:06;12.90;;;11.57;;
63346;SDS011;49472;49.880;8.650;2023-11-19T09:48:35;13.13;;;12.07;;
63346;SDS011;49472;49.880;8.650;2023-11-19T09:51:01;12.70;;;11.70;;
63346;SDS011;49472;49.880;8.650;2023-11-19T09:53:26;20.73;;;12.40;;
63346;SDS011;49472;49.880;8.650;2023-11-19T09:55:51;13.03;;;11.93;;
63346;SDS011;49472;49.880;8.650;2023-11-19T09:58:17;12.70;;;11.70;;
63346;SDS011;49472;49.880;8.650;2023-11-19T10:00:43;13.17;;;12.27;;
63346;SDS011;49472;49.880;8.650;2023-11-19T10:03:08;12.40;;;11.23;;
63346;SDS011;49472;49.880;8.650;2023-11-19T10:05:36;12.77;;;11.87;;
63346;SDS011;49472;49.880;8.650;2023-11-19T10:08:03;15.03;;;13.20;;
63346;SDS011;49472;49.880;8.650;2023-11-19T10:10:28;13.57;;;12.50;;
63346;SDS011;49472;49.880;8.650;2023-11-19T10:12:54;13.77;;;12.77;;
63346;SDS011;49472;49.880;8.650;2023-11-19T10:15:20;13.60;;;12.53;;
63346;SDS011;49472;49.880;8.650;2023-11-19T10:17:47;14.77;;;13.47;;
63346;SDS011;49472;49.880;8.650;2023-11-19T10:20:12;13.97;;;13.10;;
63346;SDS011;49472;49.880;8.650;2023-11-19T10:22:38;16.90;;;13.37;;
63346;SDS011;49472;49.880;8.650;2023-11-19T10:25:03;13.80;;;13.00;;
63346;SDS011;49472;49.880;8.650;2023-11-19T10:27:29;13.47;;;12.73;;
63346;SDS011;49472;49.880;8.650;2023-11-19T10:29:57;14.03;;;13.07;;
63346;SDS011;49472;49.880;8.650;2023-11-19T10:32:24;13.67;;;12.53;;
63346;SDS011;49472;49.880;8.650;2023-11-19T10:34:49;15.30;;;14.10;;
63346;SDS011;49472;49.880;8.650;2023-11-19T10:37:27;16.43;;;14.80;;
63346;SDS011;49472;49.880;8.650;2023-11-19T10:39:52;14.83;;;13.57;;
63346;SDS011;49472;49.880;8.650;2023-11-19T10:42:21;15.90;;;14.70;;
63346;SDS011;49472;49.880;8.650;2023-11-19T10:44:46;16.40;;;14.70;;
63346;SDS011;49472;49.880;8.650;2023-11-19T10:47:11;15.77;;;14.57;;
63346;SDS011;49472;49.880;8.650;2023-11-19T10:49:38;14.27;;;13.37;;
63346;SDS011;49472;49.880;8.650;2023-11-19T10:52:03;14.60;;;13.50;;
63346;SDS011;49472;49.880;8.650;2023-11-19T10:54:30;16.90;;;13.90;;
63346;SDS011;49472;49.880;8.650;2023-11-19T10:56:58;16.43;;;14.20;;
63346;SDS011;49472;49.880;8.650;2023-11-19T10:59:23;15.67;;;14.10;;
63346;SDS011;49472;49.880;8.650;2023-11-19T11:01:50;16.97;;;14.70;;
63346;SDS011;49472;49.880;8.650;2023-11-19T11:04:26;16.87;;;15.37;;
63346;SDS011;49472;49.880;8.650;2023-11-19T11:06:56;16.30;;;14.90;;
63346;SDS011;49472;49.880;8.650;2023-11-19T11:09:23;18.97;;;17.07;;
63346;SDS011;49472;49.880;8.650;2023-11-19T11:11:51;16.40;;;15.10;;
63346;SDS011;49472;49.880;8.650;2023-11-19T11:14:17;18.40;;;16.50;;
63346;SDS011;49472;49.880;8.650;2023-11-19T11:16:43;16.50;;;15.20;;
63346;SDS011;49472;49.880;8.650;2023-11-19T11:19:12;17.20;;;14.40;;
63346;SDS011;49472;49.880;8.650;2023-11-19T11:21:39;16.27;;;13.83;;
63346;SDS011;49472;49.880;8.650;2023-11-19T11:24:13;14.03;;;13.13;;
63346;SDS011;49472;49.880;8.650;2023-11-19T11:31:54;13.97;;;12.83;;
63346;SDS011;49472;49.880;8.650;2023-11-19T11:39:35;18.83;;;14.00;;
63346;SDS011;49472;49.880;8.650;2023-11-19T11:50:10;17.20;;;15.60;;
63346;SDS011;49472;49.880;8.650;2023-11-19T11:53:36;22.33;;;14.90;;
63346;SDS011;49472;49.880;8.650;2023-11-19T11:57:58;15.73;;;14.37;;
63346;SDS011;49472;49.880;8.650;2023-11-19T12:00:28;14.97;;;13.87;;
63346;SDS011;49472;49.880;8.650;2023-11-19T12:03:01;14.60;;;13.70;;
63346;SDS011;49472;49.880;8.650;2023-11-19T12:05:27;14.90;;;13.47;;
63346;SDS011;49472;49.880;8.650;2023-11-19T12:07:56;16.30;;;14.87;;
63346;SDS011;49472;49.880;8.650;2023-11-19T12:10:23;16.43;;;14.70;;
63346;SDS011;49472;49.880;8.650;2023-11-19T12:12:49;15.30;;;14.00;;
63346;SDS011;49472;49.880;8.650;2023-11-19T12:15:17;16.37;;;14.87;;
63346;SDS011;49472;49.880;8.650;2023-11-19T12:17:48;21.13;;;15.40;;
63346;SDS011;49472;49.880;8.650;2023-11-19T12:20:14;15.70;;;14.10;;
63346;SDS011;49472;49.880;8.650;2023-11-19T12:22:40;15.87;;;14.40;;
63346;SDS011;49472;49.880;8.650;2023-11-19T12:25:06;16.90;;;15.33;;
63346;SDS011;49472;49.880;8.650;2023-11-19T12:27:32;16.80;;;15.40;;
63346;SDS011;49472;49.880;8.650;2023-11-19T12:29:58;17.30;;;15.80;;
63346;SDS011;49472;49.880;8.650;2023-11-19T12:32:24;17.93;;;16.07;;
63346;SDS011;49472;49.880;8.650;2023-11-19T12:34:49;17.67;;;16.40;;
63346;SDS011;49472;49.880;8.650;2023-11-19T12:37:15;18.43;;;16.70;;
63346;SDS011;49472;49.880;8.650;2023-11-19T12:39:40;19.37;;;17.47;;
63346;SDS011;49472;49.880;8.650;2023-11-19T12:42:05;17.93;;;16.20;;
63346;SDS011;49472;49.880;8.650;2023-11-19T12:44:30;17.57;;;16.17;;
63346;SDS011;49472;49.880;8.650;2023-11-19T12:47:02;17.30;;;15.87;;
63346;SDS011;49472;49.880;8.650;2023-11-19T12:49:28;17.40;;;16.10;;
63346;SDS011;49472;49.880;8.650;2023-11-19T12:51:53;16.97;;;15.53;;
63346;SDS011;49472;49.880;8.650;2023-11-19T12:54:18;17.90;;;16.50;;
63346;SDS011;49472;49.880;8.650;2023-11-19T12:56:53;17.93;;;16.43;;
63346;SDS011;49472;49.880;8.650;2023-11-19T12:59:18;17.80;;;16.27;;
63346;SDS011;49472;49.880;8.650;2023-11-19T13:01:56;18.70;;;17.10;;
63346;SDS011;49472;49.880;8.650;2023-11-19T13:04:21;17.40;;;15.90;;
63346;SDS011;49472;49.880;8.650;2023-11-19T13:06:46;17.30;;;15.60;;
63346;SDS011;49472;49.880;8.650;2023-11-19T13:09:25;17.03;;;15.50;;
63346;SDS011;49472;49.880;8.650;2023-11-19T13:11:51;17.97;;;16.47;;
63346;SDS011;49472;49.880;8.650;2023-11-19T13:14:17;17.93;;;16.13;;
63346;SDS011;49472;49.880;8.650;2023-11-19T13:16:42;19.10;;;16.57;;
63346;SDS011;49472;49.880;8.650;2023-11-19T13:19:08;18.20;;;16.40;;
63346;SDS011;49472;49.880;8.650;2023-11-19T13:21:36;18.10;;;16.50;;
63346;SDS011;49472;49.880;8.650;2023-11-19T13:24:02;19.70;;;17.33;;
63346;SDS011;49472;49.880;8.650;2023-11-19T13:26:28;17.33;;;15.67;;
63346;SDS011;49472;49.880;8.650;2023-11-19T13:28:53;19.13;;;16.37;;
63346;SDS011;49472;49.880;8.650;2023-11-19T13:31:18;20.50;;;16.00;;
63346;SDS011;49472;49.880;8.650;2023-11-19T13:33:44;18.87;;;16.47;;
63346;SDS011;49472;49.880;8.650;2023-11-19T13:36:09;18.00;;;16.27;;
63346;SDS011;49472;49.880;8.650;2023-11-19T13:38:34;18.17;;;16.60;;
63346;SDS011;49472;49.880;8.650;2023-11-19T13:41:03;17.47;;;15.87;;
63346;SDS011;49472;49.880;8.650;2023-11-19T13:43:30;17.43;;;15.80;;
63346;SDS011;49472;49.880;8.650;2023-11-19T13:45:59;17.27;;;15.73;;
63346;SDS011;49472;49.880;8.650;2023-11-19T13:48:24;16.77;;;15.13;;
63346;SDS011;49472;49.880;8.650;2023-11-19T13:50:49;16.80;;;15.30;;
63346;SDS011;49472;49.880;8.650;2023-11-19T13:53:15;16.37;;;14.87;;
63346;SDS011;49472;49.880;8.650;2023-11-19T13:55:41;17.60;;;16.10;;
63346;SDS011;49472;49.880;8.650;2023-11-19T13:58:07;18.63;;;16.70;;
63346;SDS011;49472;49.880;8.650;2023-11-19T14:00:32;18.00;;;16.17;;
63346;SDS011;49472;49.880;8.650;2023-11-19T14:02:57;18.00;;;16.33;;
63346;SDS011;49472;49.880;8.650;2023-11-19T14:05:23;18.87;;;16.83;;
63346;SDS011;49472;49.880;8.650;2023-11-19T14:07:48;17.50;;;15.80;;
63346;SDS011;49472;49.880;8.650;2023-11-19T14:10:14;17.40;;;15.80;;
63346;SDS011;49472;49.880;8.650;2023-11-19T14:12:40;17.87;;;16.00;;
63346;SDS011;49472;49.880;8.650;2023-11-19T14:15:06;17.43;;;15.90;;
63346;SDS011;49472;49.880;8.650;2023-11-19T14:17:32;18.30;;;16.53;;
63346;SDS011;49472;49.880;8.650;2023-11-19T14:19:57;21.87;;;16.43;;
63346;SDS011;49472;49.880;8.650;2023-11-19T14:22:22;19.43;;;17.47;;
63346;SDS011;49472;49.880;8.650;2023-11-19T14:24:47;23.23;;;16.60;;
63346;SDS011;49472;49.880;8.650;2023-11-19T14:27:13;18.20;;;16.60;;
63346;SDS011;49472;49.880;8.650;2023-11-19T14:29:38;18.37;;;16.70;;
63346;SDS011;49472;49.880;8.650;2023-11-19T14:32:04;17.47;;;15.67;;
63346;SDS011;49472;49.880;8.650;2023-11-19T14:34:30;18.73;;;16.37;;
63346;SDS011;49472;49.880;8.650;2023-11-19T14:36:55;21.20;;;17.57;;
63346;SDS011;49472;49.880;8.650;2023-11-19T14:39:21;17.90;;;16.30;;